Time;durP1;ratioP1;P1;durP2;ratioP2;P2;SDS_P1;SDS_P2;PMS_P1;PMS_P2;Temp;Humidity;BMP_temperature;BMP_pressure;BME280_temperature;BME280_humidity;BME280_pressure;Samples;Min_cycle;Max_cycle;Signal;HPM_P1;HPM_P2
2023/04/15 00:02:17;;;;;;;;;14.75;13.50;;;;;-147.17;100.00;-15917.19;4991038;28;51217;-54
2023/04/15 00:04:45;;;;;;;;;15.75;15.25;;;;;-147.17;100.00;-15917.19;4990484;28;52738;-55
2023/04/15 00:07:11;;;;;;;;;21.75;17.50;;;;;-147.17;100.00;-15917.19;4992019;28;51379;-54
2023/04/15 00:09:36;;;;;;;;;17.25;14.75;;;;;-147.17;100.00;-15917.19;4988299;28;51574;-54
2023/04/15 00:12:02;;;;;;;;;16.75;16.00;;;;;-147.17;100.00;-15917.19;4989997;28;51411;-56
2023/04/15 00:14:27;;;;;;;;;20.75;18.25;;;;;-147.17;100.00;-15917.19;4987857;28;52008;-56
2023/04/15 00:16:55;;;;;;;;;14.75;14.75;;;;;-147.17;100.00;-15917.19;4989162;28;51719;-56
2023/04/15 00:19:20;;;;;;;;;14.75;13.25;;;;;-147.17;100.00;-15917.19;4990056;28;53126;-52
2023/04/15 00:21:46;;;;;;;;;17.00;15.00;;;;;-147.17;100.00;-15917.19;4990915;28;51151;-54
2023/04/15 00:24:12;;;;;;;;;7.50;6.00;;;;;-147.17;100.00;-15917.19;4988922;28;52660;-54
2023/04/15 00:26:38;;;;;;;;;17.50;16.00;;;;;-147.17;100.00;-15917.19;4989574;28;51597;-54
2023/04/15 00:29:03;;;;;;;;;16.50;16.00;;;;;-147.17;100.00;-15917.19;4989309;28;51393;-55
2023/04/15 00:31:30;;;;;;;;;12.50;12.25;;;;;-147.17;100.00;-15917.19;4994081;28;51349;-56
2023/04/15 00:33:55;;;;;;;;;15.25;15.00;;;;;-147.17;100.00;-15917.19;4989212;28;51911;-56
2023/04/15 00:36:21;;;;;;;;;8.25;8.25;;;;;-147.17;100.00;-15917.19;4987599;28;53050;-56
2023/04/15 00:38:46;;;;;;;;;14.50;14.25;;;;;-147.17;100.00;-15917.19;4987229;28;51274;-56
2023/04/15 00:41:12;;;;;;;;;20.50;16.50;;;;;-147.17;100.00;-15917.19;4988793;28;51291;-56
2023/04/15 00:43:37;;;;;;;;;19.75;17.75;;;;;-147.17;100.00;-15917.19;4989124;28;54049;-55
2023/04/15 00:46:04;;;;;;;;;16.50;15.00;;;;;-147.17;100.00;-15917.19;4987651;28;51673;-55
2023/04/15 00:48:31;;;;;;;;;15.00;14.25;;;;;-147.17;100.00;-15917.19;4986722;28;51840;-55
2023/04/15 00:50:56;;;;;;;;;17.25;16.50;;;;;-147.17;100.00;-15917.19;4986087;28;51361;-55
2023/04/15 00:53:22;;;;;;;;;14.00;12.25;;;;;-147.17;100.00;-15917.19;4988565;28;51975;-56
2023/04/15 00:55:48;;;;;;;;;22.75;21.25;;;;;-147.17;100.00;-15917.19;4993738;28;51287;-56
2023/04/15 00:58:14;;;;;;;;;15.50;15.25;;;;;-147.17;100.00;-15917.19;4988735;28;51301;-55
2023/04/15 01:00:40;;;;;;;;;13.50;13.50;;;;;-147.17;100.00;-15917.19;4989272;28;51561;-56
2023/04/15 01:03:05;;;;;;;;;15.00;14.50;;;;;-147.17;100.00;-15917.19;4988453;28;51249;-56
2023/04/15 01:05:31;;;;;;;;;12.00;11.25;;;;;-147.17;100.00;-15917.19;4987975;28;51317;-55
2023/04/15 01:07:57;;;;;;;;;18.25;15.75;;;;;-147.17;100.00;-15917.19;4992941;28;51288;-55
2023/04/15 01:10:22;;;;;;;;;14.75;13.50;;;;;-147.17;100.00;-15917.19;4988926;28;52859;-55
2023/04/15 01:12:48;;;;;;;;;13.50;12.75;;;;;-147.17;100.00;-15917.19;4987460;28;52264;-55
2023/04/15 01:15:13;;;;;;;;;14.25;11.75;;;;;-147.17;100.00;-15917.19;4988619;28;51254;-55
2023/04/15 01:17:39;;;;;;;;;17.00;15.00;;;;;-147.17;100.00;-15917.19;4988439;28;51533;-54
2023/04/15 01:20:05;;;;;;;;;16.00;15.50;;;;;-147.17;100.00;-15917.19;4989982;28;51893;-56
2023/04/15 01:22:33;;;;;;;;;15.00;14.50;;;;;-147.17;100.00;-15917.19;4990112;28;51855;-56
2023/04/15 01:25:21;;;;;;;;;15.00;12.25;;;;;-147.17;100.00;-15917.19;4988744;28;51794;-56
2023/04/15 01:27:47;;;;;;;;;14.50;12.25;;;;;-147.17;100.00;-15917.19;4989265;28;51782;-54
2023/04/15 01:30:12;;;;;;;;;15.00;12.50;;;;;-147.17;100.00;-15917.19;4989768;28;51477;-57
2023/04/15 01:32:37;;;;;;;;;17.00;16.00;;;;;-147.17;100.00;-15917.19;4989430;28;52319;-57
2023/04/15 01:35:03;;;;;;;;;14.00;12.50;;;;;-147.17;100.00;-15917.19;4988397;28;51328;-55
2023/04/15 01:37:29;;;;;;;;;12.50;12.25;;;;;-147.17;100.00;-15917.19;4973917;28;52882;-54
2023/04/15 01:39:56;;;;;;;;;12.75;10.75;;;;;-147.17;100.00;-15917.19;4989009;28;51335;-55
2023/04/15 01:42:21;;;;;;;;;11.75;11.50;;;;;-147.17;100.00;-15917.19;4990587;28;51269;-54
2023/04/15 01:44:47;;;;;;;;;13.75;13.75;;;;;-147.17;100.00;-15917.19;4994067;28;51282;-55
2023/04/15 01:47:13;;;;;;;;;12.25;12.25;;;;;-147.17;100.00;-15917.19;4986170;28;51288;-54
2023/04/15 01:49:38;;;;;;;;;13.50;11.75;;;;;-147.17;100.00;-15917.19;4990003;28;51189;-56
2023/04/15 01:52:03;;;;;;;;;17.50;15.25;;;;;-147.17;100.00;-15917.19;4986856;28;54428;-55
2023/04/15 01:54:29;;;;;;;;;16.50;13.25;;;;;-147.17;100.00;-15917.19;4987684;28;54041;-54
2023/04/15 01:56:55;;;;;;;;;10.00;9.00;;;;;-147.17;100.00;-15917.19;4984859;28;51571;-57
2023/04/15 01:59:21;;;;;;;;;11.75;11.00;;;;;-147.17;100.00;-15917.19;4987888;28;53015;-55
2023/04/15 02:01:47;;;;;;;;;8.75;8.75;;;;;-147.17;100.00;-15917.19;4987862;28;52713;-55
2023/04/15 02:04:18;;;;;;;;;13.75;13.00;;;;;-147.17;100.00;-15917.19;4987566;28;51307;-56
2023/04/15 02:06:43;;;;;;;;;12.25;11.50;;;;;-147.17;100.00;-15917.19;4985777;28;51240;-54
2023/04/15 02:09:09;;;;;;;;;14.25;14.25;;;;;-147.17;100.00;-15917.19;4985458;28;51239;-55
2023/04/15 02:11:36;;;;;;;;;10.00;10.00;;;;;-147.17;100.00;-15917.19;4988883;28;52123;-57
2023/04/15 02:14:01;;;;;;;;;11.75;11.75;;;;;-147.17;100.00;-15917.19;4985861;28;51404;-56
2023/04/15 02:16:26;;;;;;;;;13.25;11.25;;;;;-147.17;100.00;-15917.19;4986907;28;51213;-56
2023/04/15 02:18:55;;;;;;;;;7.50;7.00;;;;;-147.17;100.00;-15917.19;4985661;28;51441;-55
2023/04/15 02:21:20;;;;;;;;;12.25;11.00;;;;;-147.17;100.00;-15917.19;4986603;28;52664;-56
2023/04/15 02:23:47;;;;;;;;;10.75;10.25;;;;;-147.17;100.00;-15917.19;4989202;28;51256;-57
2023/04/15 02:26:12;;;;;;;;;9.50;9.50;;;;;-147.17;100.00;-15917.19;4986807;28;52810;-56
2023/04/15 02:28:38;;;;;;;;;10.25;10.00;;;;;-147.17;100.00;-15917.19;4987138;28;51885;-56
2023/04/15 02:31:07;;;;;;;;;9.00;8.75;;;;;-147.17;100.00;-15917.19;4992215;28;52714;-57
2023/04/15 02:33:32;;;;;;;;;17.50;16.75;;;;;-147.17;100.00;-15917.19;4986097;28;51679;-55
2023/04/15 02:35:58;;;;;;;;;9.00;9.00;;;;;-147.17;100.00;-15917.19;5003658;28;51724;-55
2023/04/15 02:38:23;;;;;;;;;10.75;10.00;;;;;-147.17;100.00;-15917.19;4988967;28;51805;-56
2023/04/15 02:40:49;;;;;;;;;7.50;7.50;;;;;-147.17;100.00;-15917.19;4983867;28;51905;-56
2023/04/15 02:43:16;;;;;;;;;7.25;6.25;;;;;-147.17;100.00;-15917.19;4989003;28;51234;-57
2023/04/15 02:45:42;;;;;;;;;7.75;7.75;;;;;-147.17;100.00;-15917.19;4988615;28;51433;-55
2023/04/15 02:48:08;;;;;;;;;10.75;9.50;;;;;-147.17;100.00;-15917.19;4988470;28;52225;-56
2023/04/15 02:50:33;;;;;;;;;9.25;9.00;;;;;-147.17;100.00;-15917.19;4989030;28;52094;-57
2023/04/15 02:53:00;;;;;;;;;8.25;8.00;;;;;-147.17;100.00;-15917.19;4985935;28;51620;-56
2023/04/15 02:55:25;;;;;;;;;10.25;10.00;;;;;-147.17;100.00;-15917.19;4990304;28;51413;-55
2023/04/15 02:57:51;;;;;;;;;11.75;11.00;;;;;-147.17;100.00;-15917.19;4984463;28;51228;-56
2023/04/15 03:00:16;;;;;;;;;9.25;8.75;;;;;-147.17;100.00;-15917.19;4987573;28;52475;-58
2023/04/15 03:02:43;;;;;;;;;10.00;10.00;;;;;-147.17;100.00;-15917.19;4987846;28;51258;-56
2023/04/15 03:05:13;;;;;;;;;15.00;11.75;;;;;-147.17;100.00;-15917.19;4987816;28;51782;-57
2023/04/15 03:07:39;;;;;;;;;12.00;12.00;;;;;-147.17;100.00;-15917.19;4985927;28;51179;-56
2023/04/15 03:10:06;;;;;;;;;15.75;14.75;;;;;-147.17;100.00;-15917.19;4986173;28;51421;-55
2023/04/15 03:12:31;;;;;;;;;16.50;15.75;;;;;-147.17;100.00;-15917.19;4976319;28;52878;-56
2023/04/15 03:14:57;;;;;;;;;16.75;16.00;;;;;-147.17;100.00;-15917.19;4989464;28;51436;-56
2023/04/15 03:17:22;;;;;;;;;17.75;17.75;;;;;-147.17;100.00;-15917.19;4983953;28;51578;-56
2023/04/15 03:19:47;;;;;;;;;17.25;15.75;;;;;-147.17;100.00;-15917.19;4986365;28;51967;-56
2023/04/15 03:22:13;;;;;;;;;18.25;17.00;;;;;-147.17;100.00;-15917.19;4987745;28;51430;-57
2023/04/15 03:24:38;;;;;;;;;21.50;19.50;;;;;-147.17;100.00;-15917.19;4990469;28;51226;-56
2023/04/15 03:27:05;;;;;;;;;18.00;18.00;;;;;-147.17;100.00;-15917.19;4991704;28;52718;-56
2023/04/15 03:29:30;;;;;;;;;17.75;17.25;;;;;-147.17;100.00;-15917.19;4995949;28;52039;-56
2023/04/15 03:31:55;;;;;;;;;17.00;14.75;;;;;-147.17;100.00;-15917.19;5010963;28;51026;-55
2023/04/15 03:34:21;;;;;;;;;15.50;14.75;;;;;-147.17;100.00;-15917.19;5013421;28;51208;-55
2023/04/15 03:36:46;;;;;;;;;12.00;12.00;;;;;-147.17;100.00;-15917.19;5005445;28;51238;-55
2023/04/15 03:39:12;;;;;;;;;14.25;11.75;;;;;-147.17;100.00;-15917.19;5008719;28;51956;-55
2023/04/15 03:41:37;;;;;;;;;12.75;11.50;;;;;-147.17;100.00;-15917.19;5012418;28;51100;-56
2023/04/15 03:44:02;;;;;;;;;10.00;10.00;;;;;-147.17;100.00;-15917.19;5012056;28;51199;-56
2023/04/15 03:46:28;;;;;;;;;8.00;6.25;;;;;-147.17;100.00;-15917.19;5010754;28;52511;-56
2023/04/15 03:48:53;;;;;;;;;8.75;8.25;;;;;-147.17;100.00;-15917.19;5012698;28;51716;-56
2023/04/15 03:51:18;;;;;;;;;9.25;6.50;;;;;-147.17;100.00;-15917.19;5007878;28;51258;-55
2023/04/15 03:53:44;;;;;;;;;6.25;6.25;;;;;-147.17;100.00;-15917.19;5010741;28;51224;-54
2023/04/15 03:56:09;;;;;;;;;9.25;8.75;;;;;-147.17;100.00;-15917.19;5012182;28;51213;-54
2023/04/15 03:58:35;;;;;;;;;7.00;5.25;;;;;-147.17;100.00;-15917.19;5006520;28;52760;-55
2023/04/15 04:01:00;;;;;;;;;5.00;5.00;;;;;-147.17;100.00;-15917.19;5004532;28;51100;-55
2023/04/15 04:03:26;;;;;;;;;5.50;5.50;;;;;-147.17;100.00;-15917.19;5011088;28;51139;-56
2023/04/15 04:05:51;;;;;;;;;7.50;6.50;;;;;-147.17;100.00;-15917.19;5014165;28;51350;-54
2023/04/15 04:08:18;;;;;;;;;6.25;6.25;;;;;-147.17;100.00;-15917.19;5004526;28;54065;-56
2023/04/15 04:10:43;;;;;;;;;6.25;5.00;;;;;-147.17;100.00;-15917.19;5013507;28;51222;-55
2023/04/15 04:13:09;;;;;;;;;6.25;5.25;;;;;-147.17;100.00;-15917.19;5010237;28;51138;-57
2023/04/15 04:15:34;;;;;;;;;4.00;4.00;;;;;-147.17;100.00;-15917.19;5012078;28;51392;-55
2023/04/15 04:18:00;;;;;;;;;4.25;3.75;;;;;-147.17;100.00;-15917.19;4998077;28;51119;-56
2023/04/15 04:20:25;;;;;;;;;3.00;3.00;;;;;-147.17;100.00;-15917.19;5013471;28;51049;-56
2023/04/15 04:22:50;;;;;;;;;5.00;5.00;;;;;-147.17;100.00;-15917.19;5012690;28;51000;-55
2023/04/15 04:25:16;;;;;;;;;3.50;3.50;;;;;-147.17;100.00;-15917.19;5009797;28;51382;-57
2023/04/15 04:27:41;;;;;;;;;3.25;3.25;;;;;-147.17;100.00;-15917.19;5009181;28;51660;-56
2023/04/15 04:30:07;;;;;;;;;5.50;5.00;;;;;-147.17;100.00;-15917.19;5010141;28;50895;-55
2023/04/15 04:32:33;;;;;;;;;3.00;2.00;;;;;-147.17;100.00;-15917.19;4997249;28;51361;-56
2023/04/15 04:34:58;;;;;;;;;3.00;3.00;;;;;-147.17;100.00;-15917.19;4997057;28;51882;-56
2023/04/15 04:37:23;;;;;;;;;2.00;2.00;;;;;-147.17;100.00;-15917.19;5008819;28;51959;-54
2023/04/15 04:39:49;;;;;;;;;3.00;3.00;;;;;-147.17;100.00;-15917.19;5008174;28;51203;-56
2023/04/15 04:42:15;;;;;;;;;1.75;1.75;;;;;-147.17;100.00;-15917.19;5006162;28;51173;-57
2023/04/15 04:44:40;;;;;;;;;2.25;2.00;;;;;-147.17;100.00;-15917.19;5011342;28;51247;-55
2023/04/15 04:47:06;;;;;;;;;1.00;1.00;;;;;-147.17;100.00;-15917.19;5013996;28;53139;-56
2023/04/15 04:49:32;;;;;;;;;2.25;2.25;;;;;-147.17;100.00;-15917.19;5011709;28;51167;-57
2023/04/15 04:51:58;;;;;;;;;2.00;2.00;;;;;-147.17;100.00;-15917.19;5005426;28;51119;-56
2023/04/15 04:54:23;;;;;;;;;1.00;1.00;;;;;-147.17;100.00;-15917.19;5011784;28;51342;-55
2023/04/15 04:56:48;;;;;;;;;1.00;1.00;;;;;-147.17;100.00;-15917.19;5011018;28;54195;-55
2023/04/15 04:59:14;;;;;;;;;0.33;0.33;;;;;-147.17;100.00;-15917.19;5010066;28;51875;-55
2023/04/15 05:01:39;;;;;;;;;1.00;1.00;;;;;-147.17;100.00;-15917.19;5010557;28;51116;-54
2023/04/15 05:04:06;;;;;;;;;0.00;0.00;;;;;-147.17;100.00;-15917.19;5008494;28;51120;-55
2023/04/15 05:06:32;;;;;;;;;1.00;1.00;;;;;-147.17;100.00;-15917.19;5012562;28;52977;-54
2023/04/15 05:08:57;;;;;;;;;0.75;0.75;;;;;-147.17;100.00;-15917.19;5007485;28;51106;-55
2023/04/15 05:11:22;;;;;;;;;0.00;0.00;;;;;-147.17;100.00;-15917.19;5009671;28;50918;-56
2023/04/15 05:13:47;;;;;;;;;0.00;0.00;;;;;-147.17;100.00;-15917.19;5007179;28;51106;-56
2023/04/15 05:16:13;;;;;;;;;0.00;0.00;;;;;-147.17;100.00;-15917.19;5011475;28;51892;-55
2023/04/15 05:18:38;;;;;;;;;0.00;0.00;;;;;-147.17;100.00;-15917.19;5011602;28;50966;-55
2023/04/15 05:21:04;;;;;;;;;0.00;0.00;;;;;-147.17;100.00;-15917.19;5002701;28;51596;-55
2023/04/15 05:23:29;;;;;;;;;0.00;0.00;;;;;-147.17;100.00;-15917.19;5008791;28;51541;-57
2023/04/15 05:25:55;;;;;;;;;0.00;0.00;;;;;-147.17;100.00;-15917.19;5011296;28;52858;-57
2023/04/15 05:28:20;;;;;;;;;0.00;0.00;;;;;-147.17;100.00;-15917.19;5010576;28;51188;-55
2023/04/15 05:30:46;;;;;;;;;0.00;0.00;;;;;-147.17;100.00;-15917.19;5008146;28;51238;-57
2023/04/15 05:33:11;;;;;;;;;0.00;0.00;;;;;-147.17;100.00;-15917.19;5006949;28;51405;-55
2023/04/15 05:35:37;;;;;;;;;1.25;0.75;;;;;-147.17;100.00;-15917.19;5015376;28;52178;-55
2023/04/15 05:38:02;;;;;;;;;0.00;0.00;;;;;-147.17;100.00;-15917.19;5002430;28;51151;-54
2023/04/15 05:40:29;;;;;;;;;1.00;1.00;;;;;-147.17;100.00;-15917.19;5008963;28;51091;-56
2023/04/15 05:42:55;;;;;;;;;1.00;1.00;;;;;-147.17;100.00;-15917.19;5002781;28;51315;-56
2023/04/15 05:45:20;;;;;;;;;1.00;1.00;;;;;-147.17;100.00;-15917.19;5003234;28;51835;-56
2023/04/15 05:47:46;;;;;;;;;1.00;1.00;;;;;-147.17;100.00;-15917.19;5011261;28;50981;-56
2023/04/15 05:50:11;;;;;;;;;0.75;0.75;;;;;-147.17;100.00;-15917.19;5009096;28;50970;-56
2023/04/15 05:52:37;;;;;;;;;2.25;2.25;;;;;-147.17;100.00;-15917.19;5003759;28;51381;-56
2023/04/15 05:55:02;;;;;;;;;1.50;1.50;;;;;-147.17;100.00;-15917.19;5006120;28;52007;-56
2023/04/15 05:57:27;;;;;;;;;2.00;2.00;;;;;-147.17;100.00;-15917.19;5013634;28;51162;-56
2023/04/15 05:59:54;;;;;;;;;2.00;1.75;;;;;-147.17;100.00;-15917.19;5011045;28;51117;-56
2023/04/15 06:02:19;;;;;;;;;2.00;2.00;;;;;-147.17;100.00;-15917.19;5003254;28;51225;-56
2023/04/15 06:04:45;;;;;;;;;3.00;3.00;;;;;-147.17;100.00;-15917.19;5004750;28;51107;-56
2023/04/15 06:07:10;;;;;;;;;4.00;4.00;;;;;-147.17;100.00;-15917.19;5004099;28;51218;-56
2023/04/15 06:09:35;;;;;;;;;2.00;2.00;;;;;-147.17;100.00;-15917.19;4997572;28;51151;-56
2023/04/15 06:12:01;;;;;;;;;2.00;2.00;;;;;-147.17;100.00;-15917.19;5004748;28;51912;-56
2023/04/15 06:14:27;;;;;;;;;2.00;2.00;;;;;-147.17;100.00;-15917.19;5007416;28;52722;-57
2023/04/15 06:16:52;;;;;;;;;2.00;2.00;;;;;-147.17;100.00;-15917.19;4997693;28;51276;-55
2023/04/15 06:19:18;;;;;;;;;3.00;3.00;;;;;-147.17;100.00;-15917.19;5010351;28;51081;-55
2023/04/15 06:21:44;;;;;;;;;2.00;2.00;;;;;-147.17;100.00;-15917.19;5002239;28;51334;-55
2023/04/15 06:24:10;;;;;;;;;3.00;2.00;;;;;-147.17;100.00;-15917.19;5004995;28;52737;-56
2023/04/15 06:26:35;;;;;;;;;1.00;1.00;;;;;-147.17;100.00;-15917.19;5000468;28;51336;-56
2023/04/15 06:29:01;;;;;;;;;2.00;2.00;;;;;-147.17;100.00;-15917.19;5007226;28;51058;-56
2023/04/15 06:31:26;;;;;;;;;3.00;3.00;;;;;-147.17;100.00;-15917.19;4994114;28;51175;-57
2023/04/15 06:33:51;;;;;;;;;2.00;2.00;;;;;-147.17;100.00;-15917.19;5000308;28;51241;-56
2023/04/15 06:36:18;;;;;;;;;2.00;2.00;;;;;-147.17;100.00;-15917.19;4997903;28;51134;-54
2023/04/15 06:38:43;;;;;;;;;2.50;2.50;;;;;-147.17;100.00;-15917.19;4996809;28;51350;-55
2023/04/15 06:41:09;;;;;;;;;1.75;1.75;;;;;-147.17;100.00;-15917.19;5005621;28;51920;-56
2023/04/15 06:43:34;;;;;;;;;1.75;1.75;;;;;-147.17;100.00;-15917.19;4999765;28;51204;-57
2023/04/15 06:46:00;;;;;;;;;2.00;2.00;;;;;-147.17;100.00;-15917.19;5003823;28;51400;-56
2023/04/15 06:48:25;;;;;;;;;1.00;1.00;;;;;-147.17;100.00;-15917.19;5007123;28;51696;-57
2023/04/15 06:50:51;;;;;;;;;4.00;3.00;;;;;-147.17;100.00;-15917.19;5005819;28;50976;-56
2023/04/15 06:53:16;;;;;;;;;1.00;1.00;;;;;-147.17;100.00;-15917.19;5004348;28;51297;-56
2023/04/15 06:55:41;;;;;;;;;2.00;1.25;;;;;-147.17;100.00;-15917.19;4999454;28;53452;-55
2023/04/15 06:58:07;;;;;;;;;1.00;1.00;;;;;-147.17;100.00;-15917.19;5011536;28;52644;-56
2023/04/15 07:00:35;;;;;;;;;0.25;0.25;;;;;-147.17;100.00;-15917.19;5009123;28;51290;-55
2023/04/15 07:03:03;;;;;;;;;1.00;1.00;;;;;-147.17;100.00;-15917.19;5012003;28;52435;-57
2023/04/15 07:05:29;;;;;;;;;1.50;1.50;;;;;-147.17;100.00;-15917.19;5012214;28;51362;-57
2023/04/15 07:07:56;;;;;;;;;0.00;0.00;;;;;-147.17;100.00;-15917.19;5011332;28;51124;-55
2023/04/15 07:10:21;;;;;;;;;0.50;0.50;;;;;-147.17;100.00;-15917.19;5010076;28;51281;-55
2023/04/15 07:12:47;;;;;;;;;1.75;1.00;;;;;-147.17;100.00;-15917.19;4999776;28;51108;-55
2023/04/15 07:15:13;;;;;;;;;1.00;1.00;;;;;-147.17;100.00;-15917.19;5287603;22;51839;-57
2023/04/15 07:17:39;;;;;;;;;1.00;1.00;;;;;-147.17;100.00;-15917.19;5008393;28;51976;-58
2023/04/15 07:20:05;;;;;;;;;1.00;0.33;;;;;-147.17;100.00;-15917.19;5009914;28;51129;-58
2023/04/15 07:22:30;;;;;;;;;0.00;0.00;;;;;-147.17;100.00;-15917.19;5013147;28;51882;-58
2023/04/15 07:24:55;;;;;;;;;0.00;0.00;;;;;-147.17;100.00;-15917.19;5013349;28;50973;-59
2023/04/15 07:27:21;;;;;;;;;1.00;1.00;;;;;-147.17;100.00;-15917.19;5006729;28;51848;-58
2023/04/15 07:29:50;;;;;;;;;1.00;1.00;;;;;-147.17;100.00;-15917.19;5007571;28;51202;-58
2023/04/15 07:32:16;;;;;;;;;1.00;0.00;;;;;-147.17;100.00;-15917.19;5012637;28;51202;-57
2023/04/15 07:34:42;;;;;;;;;1.00;1.00;;;;;-147.17;100.00;-15917.19;5014490;28;51244;-57
2023/04/15 07:37:07;;;;;;;;;1.00;1.00;;;;;-147.17;100.00;-15917.19;5011991;28;51425;-58
2023/04/15 07:39:32;;;;;;;;;1.00;1.00;;;;;-147.17;100.00;-15917.19;5004566;28;51253;-58
2023/04/15 07:41:58;;;;;;;;;1.00;1.00;;;;;-147.17;100.00;-15917.19;5002044;28;51994;-57
2023/04/15 07:44:24;;;;;;;;;1.00;1.00;;;;;-147.17;100.00;-15917.19;4999257;28;51191;-58
2023/04/15 07:46:50;;;;;;;;;1.50;1.50;;;;;-147.17;100.00;-15917.19;5013563;28;51106;-58
2023/04/15 07:49:15;;;;;;;;;1.25;1.25;;;;;-147.17;100.00;-15917.19;5009093;28;51695;-57
2023/04/15 07:51:40;;;;;;;;;2.50;1.75;;;;;-147.17;100.00;-15917.19;5005704;28;51168;-57
2023/04/15 07:54:06;;;;;;;;;0.50;0.50;;;;;-147.17;100.00;-15917.19;5002366;28;52587;-57
2023/04/15 07:56:31;;;;;;;;;0.00;0.00;;;;;-147.17;100.00;-15917.19;5011830;28;51380;-57
2023/04/15 07:58:57;;;;;;;;;1.00;1.00;;;;;-147.17;100.00;-15917.19;5005689;28;51430;-57
2023/04/15 08:01:22;;;;;;;;;1.50;1.50;;;;;-147.17;100.00;-15917.19;5007866;28;52811;-58
2023/04/15 08:03:47;;;;;;;;;1.50;1.50;;;;;-147.17;100.00;-15917.19;5013344;28;51031;-57
2023/04/15 08:06:13;;;;;;;;;1.00;1.00;;;;;-147.17;100.00;-15917.19;5009307;28;51297;-57
2023/04/15 08:08:38;;;;;;;;;0.00;0.00;;;;;-147.17;100.00;-15917.19;4998549;28;51152;-57
2023/04/15 08:11:04;;;;;;;;;2.00;2.00;;;;;-147.17;100.00;-15917.19;5005346;28;52036;-59
2023/04/15 08:13:29;;;;;;;;;1.75;1.75;;;;;-147.17;100.00;-15917.19;5009599;28;51367;-58
2023/04/15 08:16:21;;;;;;;;;3.00;3.00;;;;;-147.17;100.00;-15917.19;5011609;28;51167;-57
2023/04/15 08:18:48;;;;;;;;;2.00;2.00;;;;;-147.17;100.00;-15917.19;4994891;28;51408;-57
2023/04/15 08:21:13;;;;;;;;;3.00;2.50;;;;;-147.17;100.00;-15917.19;5004703;28;51075;-57
2023/04/15 08:23:39;;;;;;;;;1.50;1.50;;;;;-147.17;100.00;-15917.19;5007485;28;51234;-56
2023/04/15 08:26:07;;;;;;;;;2.00;2.00;;;;;-147.17;100.00;-15917.19;5005918;28;51207;-58
2023/04/15 08:28:35;;;;;;;;;2.00;2.00;;;;;-147.17;100.00;-15917.19;5007068;28;52361;-57
2023/04/15 08:31:02;;;;;;;;;3.00;3.00;;;;;-147.17;100.00;-15917.19;5002751;28;51867;-58
2023/04/15 08:33:28;;;;;;;;;3.00;2.00;;;;;-147.17;100.00;-15917.19;5008114;28;51011;-57
2023/04/15 08:35:53;;;;;;;;;2.00;1.67;;;;;-147.17;100.00;-15917.19;5005187;28;51265;-57
2023/04/15 08:38:19;;;;;;;;;3.25;3.00;;;;;-147.17;100.00;-15917.19;5014312;28;51159;-57
2023/04/15 08:40:45;;;;;;;;;5.25;5.25;;;;;-147.17;100.00;-15917.19;5011044;28;52087;-57
2023/04/15 08:43:36;;;;;;;;;2.75;2.75;;;;;-147.17;100.00;-15917.19;5011373;28;51162;-57
2023/04/15 08:46:04;;;;;;;;;2.75;2.50;;;;;-147.17;100.00;-15917.19;5003559;28;51344;-57
2023/04/15 08:48:33;;;;;;;;;2.00;2.00;;;;;-147.17;100.00;-15917.19;5010771;28;51053;-57
2023/04/15 08:50:59;;;;;;;;;3.00;2.00;;;;;-147.17;100.00;-15917.19;5004119;28;51227;-58
2023/04/15 08:53:25;;;;;;;;;2.00;2.00;;;;;-147.17;100.00;-15917.19;5005603;28;51066;-59
2023/04/15 08:55:53;;;;;;;;;2.00;2.00;;;;;-147.17;100.00;-15917.19;5012025;28;51003;-58
2023/04/15 08:58:19;;;;;;;;;2.00;2.00;;;;;-147.17;100.00;-15917.19;5012062;28;51279;-58
2023/04/15 09:00:47;;;;;;;;;2.00;2.00;;;;;-147.17;100.00;-15917.19;5011298;28;51276;-57
2023/04/15 09:03:13;;;;;;;;;2.50;2.00;;;;;-147.17;100.00;-15917.19;5011197;28;51050;-57
2023/04/15 09:05:38;;;;;;;;;3.00;3.00;;;;;-147.17;100.00;-15917.19;5011670;28;51001;-58
2023/04/15 09:08:04;;;;;;;;;2.00;2.00;;;;;-147.17;100.00;-15917.19;5006159;28;50896;-57
2023/04/15 09:10:31;;;;;;;;;5.00;5.00;;;;;-147.17;100.00;-15917.19;5003822;28;51230;-57
2023/04/15 09:12:57;;;;;;;;;2.00;2.00;;;;;-147.17;100.00;-15917.19;5012325;28;51187;-57
2023/04/15 09:15:28;;;;;;;;;2.00;2.00;;;;;-147.17;100.00;-15917.19;5010901;28;51332;-58
2023/04/15 09:17:55;;;;;;;;;2.00;2.00;;;;;-147.17;100.00;-15917.19;5011080;28;51432;-56
2023/04/15 09:20:20;;;;;;;;;3.00;3.00;;;;;-147.17;100.00;-15917.19;5009924;28;51864;-57
2023/04/15 09:22:48;;;;;;;;;3.00;2.00;;;;;-147.17;100.00;-15917.19;5011526;28;51006;-57
2023/04/15 09:25:13;;;;;;;;;4.25;3.75;;;;;-147.17;100.00;-15917.19;5002105;28;51139;-58
2023/04/15 09:27:47;;;;;;;;;2.75;2.75;;;;;-147.17;100.00;-15917.19;5001001;28;51092;-58
2023/04/15 09:30:16;;;;;;;;;2.00;2.00;;;;;-147.17;100.00;-15917.19;5011859;28;51798;-58
2023/04/15 09:32:52;;;;;;;;;4.33;4.00;;;;;-147.17;100.00;-15917.19;5008296;28;51243;-58
2023/04/15 09:35:18;;;;;;;;;2.67;2.67;;;;;-147.17;100.00;-15917.19;5010055;28;51168;-59
2023/04/15 09:37:43;;;;;;;;;2.33;2.33;;;;;-147.17;100.00;-15917.19;5003817;28;50885;-58
2023/04/15 09:40:09;;;;;;;;;4.00;4.00;;;;;-147.17;100.00;-15917.19;5024024;28;51184;-58
2023/04/15 09:42:36;;;;;;;;;3.00;3.00;;;;;-147.17;100.00;-15917.19;5009770;28;50940;-58
2023/04/15 09:45:14;;;;;;;;;4.00;3.67;;;;;-147.17;100.00;-15917.19;5003468;28;51180;-57
2023/04/15 09:47:41;;;;;;;;;2.67;2.67;;;;;-147.17;100.00;-15917.19;5010273;28;51321;-59
2023/04/15 09:50:16;;;;;;;;;3.00;3.00;;;;;-147.17;100.00;-15917.19;4999727;28;51994;-58
2023/04/15 09:52:51;;;;;;;;;2.33;2.33;;;;;-147.17;100.00;-15917.19;5002537;28;51191;-58
2023/04/15 09:55:32;;;;;;;;;5.33;4.67;;;;;-147.17;100.00;-15917.19;5010598;28;51146;-58
2023/04/15 09:57:57;;;;;;;;;2.33;2.33;;;;;-147.17;100.00;-15917.19;5008253;28;51095;-58
2023/04/15 10:00:23;;;;;;;;;4.00;3.00;;;;;-147.17;100.00;-15917.19;5007995;28;51080;-57
2023/04/15 10:02:57;;;;;;;;;4.50;4.50;;;;;-147.17;100.00;-15917.19;5011313;28;51510;-59
2023/04/15 10:05:22;;;;;;;;;5.00;5.00;;;;;-147.17;100.00;-15917.19;5010901;28;51246;-58
2023/04/15 10:07:49;;;;;;;;;2.33;2.33;;;;;-147.17;100.00;-15917.19;5003350;28;51164;-58
2023/04/15 10:10:14;;;;;;;;;5.00;5.00;;;;;-147.17;100.00;-15917.19;4988869;28;51480;-57
2023/04/15 10:12:41;;;;;;;;;4.33;4.00;;;;;-147.17;100.00;-15917.19;5009635;28;51464;-56
2023/04/15 10:15:14;;;;;;;;;6.00;6.00;;;;;-147.17;100.00;-15917.19;5002784;28;51509;-56
2023/04/15 10:17:42;;;;;;;;;3.33;3.33;;;;;-147.17;100.00;-15917.19;5003698;28;51552;-58
2023/04/15 10:20:11;;;;;;;;;4.67;4.00;;;;;-147.17;100.00;-15917.19;5013290;28;51898;-56
2023/04/15 10:22:44;;;;;;;;;3.00;3.00;;;;;-147.17;100.00;-15917.19;5009248;28;51275;-56
2023/04/15 10:25:10;;;;;;;;;4.00;4.00;;;;;-147.17;100.00;-15917.19;5009786;28;51414;-57
2023/04/15 10:27:38;;;;;;;;;6.00;6.00;;;;;-147.17;100.00;-15917.19;5008912;28;51116;-55
2023/04/15 10:30:04;;;;;;;;;5.00;5.00;;;;;-147.17;100.00;-15917.19;5010532;28;52343;-54
2023/04/15 10:32:30;;;;;;;;;5.50;5.50;;;;;-147.17;100.00;-15917.19;5011700;28;50967;-58
2023/04/15 10:34:56;;;;;;;;;4.33;4.33;;;;;-147.17;100.00;-15917.19;5001303;28;51099;-57
2023/04/15 10:37:37;;;;;;;;;2.00;2.00;;;;;-147.17;100.00;-15917.19;5005511;28;51161;-56
2023/04/15 10:40:35;;;;;;;;;5.00;4.33;;;;;-147.17;100.00;-15917.19;5009846;28;51511;-56
2023/04/15 10:43:01;;;;;;;;;4.25;4.25;;;;;-147.17;100.00;-15917.19;4956567;28;51034;-56
2023/04/15 10:45:38;;;;;;;;;6.00;6.00;;;;;-147.17;100.00;-15917.19;5000569;28;51081;-56
2023/04/15 10:48:07;;;;;;;;;6.50;5.00;;;;;-147.17;100.00;-15917.19;5012669;28;50961;-57
2023/04/15 10:50:33;;;;;;;;;5.00;4.00;;;;;-147.17;100.00;-15917.19;5012522;28;52605;-55
2023/04/15 10:53:03;;;;;;;;;2.00;2.00;;;;;-147.17;100.00;-15917.19;5013918;28;51160;-56
2023/04/15 10:55:32;;;;;;;;;5.00;5.00;;;;;-147.17;100.00;-15917.19;5012555;28;51262;-56